Time;durP1;ratioP1;P1;durP2;ratioP2;P2;SDS_P1;SDS_P2;PMS_P1;PMS_P2;Temp;Humidity;BMP_temperature;BMP_pressure;BME280_temperature;BME280_humidity;BME280_pressure;Samples;Min_cycle;Max_cycle;Signal;HPM_P1;HPM_P2
2021/10/09 00:01:11;;;;;;;33.03;17.80;;;;;;;9.82;54.62;103225.91;5027073;28;20055;-72
2021/10/09 00:03:37;;;;;;;32.63;16.38;;;;;;;9.71;54.50;103217.19;5028130;28;20033;-72
2021/10/09 00:06:03;;;;;;;33.90;17.20;;;;;;;9.66;54.54;103222.41;5028794;28;20049;-73
2021/10/09 00:08:30;;;;;;;30.77;15.45;;;;;;;9.64;54.37;103226.75;5027788;28;20028;-73
2021/10/09 00:10:56;;;;;;;32.88;17.30;;;;;;;9.58;54.36;103224.97;5026452;28;20030;-72
2021/10/09 00:13:21;;;;;;;30.80;15.70;;;;;;;9.59;54.33;103223.25;5021067;28;20063;-73
2021/10/09 00:15:47;;;;;;;29.48;15.98;;;;;;;9.58;54.61;103219.75;5030441;28;20045;-73
2021/10/09 00:18:12;;;;;;;33.13;15.32;;;;;;;9.63;54.75;103222.38;5033516;28;20053;-72
2021/10/09 00:20:38;;;;;;;39.60;17.20;;;;;;;9.54;55.58;103225.88;5027232;28;20333;-74
2021/10/09 00:23:03;;;;;;;37.90;18.88;;;;;;;9.75;55.73;103225.00;5029411;28;20490;-71
2021/10/09 00:25:29;;;;;;;44.58;19.00;;;;;;;9.61;56.12;103218.91;5045700;28;20048;-71
2021/10/09 00:27:54;;;;;;;44.83;19.98;;;;;;;9.74;56.13;103225.88;5032031;28;20053;-71
2021/10/09 00:30:20;;;;;;;40.42;19.67;;;;;;;9.89;55.85;103224.19;5020132;28;20565;-73
2021/10/09 00:32:45;;;;;;;46.35;20.73;;;;;;;9.91;56.03;103217.22;5033493;28;20287;-71
2021/10/09 00:35:11;;;;;;;52.90;20.00;;;;;;;9.98;55.52;103224.19;5026944;28;20041;-71
2021/10/09 00:37:36;;;;;;;52.53;20.63;;;;;;;9.79;56.26;103224.19;5032883;28;20037;-71
2021/10/09 00:40:02;;;;;;;38.97;18.27;;;;;;;9.80;56.33;103225.91;5031008;28;20034;-71
2021/10/09 00:42:28;;;;;;;38.60;18.00;;;;;;;10.01;55.76;103222.47;5017543;28;20666;-71
2021/10/09 00:44:53;;;;;;;42.20;20.67;;;;;;;10.06;55.42;103222.44;5033095;28;20045;-70
2021/10/09 00:47:23;;;;;;;40.75;19.05;;;;;;;10.20;55.18;103219.81;5035572;28;20049;-73
2021/10/09 00:49:48;;;;;;;47.38;21.60;;;;;;;10.19;55.23;103224.19;5019952;28;20509;-73
2021/10/09 00:52:14;;;;;;;47.95;19.60;;;;;;;10.24;55.16;103220.69;5022154;28;20033;-74
2021/10/09 00:54:45;;;;;;;45.22;21.10;;;;;;;10.27;55.37;103220.69;5038897;28;20045;-74
2021/10/09 00:57:16;;;;;;;48.88;19.77;;;;;;;10.03;55.77;103227.66;5046755;28;20037;-73
2021/10/09 00:59:42;;;;;;;43.83;19.57;;;;;;;10.15;55.73;103216.34;5024604;28;20036;-75
2021/10/09 01:02:08;;;;;;;55.05;23.98;;;;;;;10.21;55.34;103211.09;5033529;28;20163;-74
2021/10/09 01:04:35;;;;;;;48.95;22.33;;;;;;;10.20;55.47;103218.06;5039110;28;20553;-73
2021/10/09 01:07:01;;;;;;;47.08;21.00;;;;;;;10.09;56.16;103216.34;5038876;28;20032;-74
2021/10/09 01:09:27;;;;;;;46.25;21.17;;;;;;;10.30;55.56;103210.22;5037121;28;20037;-74
2021/10/09 01:11:53;;;;;;;46.05;21.75;;;;;;;10.08;56.46;103204.13;5029759;28;20063;-70
2021/10/09 01:14:22;;;;;;;52.95;23.13;;;;;;;10.01;56.90;103206.78;5037336;28;20072;-70
2021/10/09 01:16:47;;;;;;;51.72;21.90;;;;;;;10.04;56.64;103205.91;5022257;28;20084;-70
2021/10/09 01:19:14;;;;;;;49.05;21.02;;;;;;;10.14;56.72;103205.00;5016507;28;20120;-70
2021/10/09 01:21:47;;;;;;;49.47;22.38;;;;;;;10.11;56.48;103205.03;5033815;28;20637;-70
2021/10/09 01:24:14;;;;;;;53.03;23.38;;;;;;;10.31;56.06;103206.75;5037781;28;20056;-70
2021/10/09 01:26:40;;;;;;;41.75;21.20;;;;;;;10.15;56.28;103203.28;5031835;28;20037;-70
2021/10/09 01:29:09;;;;;;;54.95;23.83;;;;;;;10.16;56.62;103205.88;5048861;28;20040;-70
2021/10/09 01:31:36;;;;;;;48.25;22.73;;;;;;;10.28;56.22;103206.72;5030771;28;20683;-73
2021/10/09 01:34:03;;;;;;;47.97;22.05;;;;;;;10.20;56.56;103198.91;5031080;28;20026;-73
2021/10/09 01:36:35;;;;;;;46.45;21.55;;;;;;;10.28;56.45;103202.41;5029445;28;20033;-71
2021/10/09 01:39:05;;;;;;;48.70;22.27;;;;;;;10.39;55.71;103199.72;5018418;28;20033;-73
2021/10/09 01:41:47;;;;;;;51.38;21.38;;;;;;;10.51;55.74;103201.47;5039722;28;20418;-72
2021/10/09 01:44:15;;;;;;;51.45;21.90;;;;;;;10.48;55.50;103204.97;5027901;28;20030;-68
2021/10/09 01:46:42;;;;;;;48.15;23.50;;;;;;;10.55;55.06;103200.59;5030094;28;20068;-69
2021/10/09 01:49:09;;;;;;;48.45;23.80;;;;;;;10.43;55.59;103196.25;5032672;28;20033;-68
2021/10/09 01:51:34;;;;;;;45.72;22.08;;;;;;;10.52;55.31;103201.44;5034473;28;20452;-69
2021/10/09 01:54:00;;;;;;;41.97;21.60;;;;;;;10.50;55.42;103208.41;5031212;28;20045;-68
2021/10/09 01:56:26;;;;;;;43.40;21.50;;;;;;;10.36;55.98;103203.22;5038568;28;20056;-71
2021/10/09 01:58:53;;;;;;;44.80;21.67;;;;;;;10.57;55.13;103199.72;5031836;28;20036;-71
2021/10/09 02:01:29;;;;;;;43.42;22.42;;;;;;;10.37;55.89;103198.88;5036578;28;20417;-71
2021/10/09 02:03:54;;;;;;;43.58;24.08;;;;;;;10.58;55.11;103201.44;5014158;28;20041;-71
2021/10/09 02:06:20;;;;;;;40.97;21.23;;;;;;;10.52;55.16;103196.22;5020678;28;20045;-69
2021/10/09 02:08:48;;;;;;;41.47;21.02;;;;;;;10.64;55.07;103190.97;5034732;28;20115;-69
2021/10/09 02:11:18;;;;;;;49.70;21.77;;;;;;;10.55;55.30;103190.13;5030894;28;20442;-71
2021/10/09 02:26:48;;;;;;;45.58;22.25;;;;;;;10.49;54.92;103184.91;5034069;28;20048;-70
2021/10/09 02:29:16;;;;;;;40.70;20.50;;;;;;;10.49;54.49;103177.06;5023319;28;20043;-71
2021/10/09 02:31:42;;;;;;;45.03;20.70;;;;;;;10.21;55.39;103179.72;5035762;28;20041;-71
2021/10/09 02:34:13;;;;;;;40.92;20.83;;;;;;;10.35;54.60;103182.34;5048317;28;20522;-71
2021/10/09 02:36:39;;;;;;;47.90;20.73;;;;;;;10.27;55.07;103177.13;5016300;28;20410;-73
2021/10/09 02:39:06;;;;;;;40.33;20.13;;;;;;;10.32;54.77;103179.72;5021601;28;20039;-72
2021/10/09 02:41:32;;;;;;;34.55;20.00;;;;;;;10.33;54.76;103181.47;5017967;28;20057;-72
2021/10/09 02:43:58;;;;;;;47.75;20.27;;;;;;;10.27;55.00;103178.88;5022513;28;20033;-71
2021/10/09 02:46:26;;;;;;;39.08;20.80;;;;;;;10.33;54.75;103181.47;5027430;28;20045;-69
2021/10/09 02:48:52;;;;;;;38.42;19.88;;;;;;;10.02;55.40;103178.91;5026569;28;20028;-73
2021/10/09 02:51:17;;;;;;;44.53;20.45;;;;;;;10.13;54.84;103168.44;5031308;28;20033;-70
2021/10/09 02:53:44;;;;;;;39.15;18.42;;;;;;;10.16;54.75;103171.91;5038298;28;20032;-72
2021/10/09 02:56:09;;;;;;;38.45;20.27;;;;;;;10.16;54.33;103169.28;5034272;28;20159;-71
2021/10/09 02:58:36;;;;;;;40.25;20.60;;;;;;;10.08;54.28;103165.84;5034719;28;20119;-71
2021/10/09 03:01:01;;;;;;;41.55;19.45;;;;;;;10.00;54.74;103160.59;5033331;28;20101;-71
2021/10/09 03:03:27;;;;;;;36.63;18.60;;;;;;;9.98;54.85;103164.09;5045403;28;20026;-72
2021/10/09 03:05:53;;;;;;;38.13;19.45;;;;;;;9.83;54.65;103162.34;5016445;28;20553;-69
2021/10/09 03:08:19;;;;;;;38.22;19.67;;;;;;;9.90;54.22;103158.88;5035828;28;20033;-70
2021/10/09 03:10:45;;;;;;;33.50;18.02;;;;;;;9.82;54.43;103154.53;5036746;28;20041;-71
2021/10/09 03:13:11;;;;;;;36.42;20.13;;;;;;;9.70;54.69;103155.34;5036692;28;20033;-72
2021/10/09 03:15:39;;;;;;;35.60;20.05;;;;;;;9.66;55.00;103159.72;5036195;28;20069;-70
2021/10/09 03:18:04;;;;;;;45.25;20.52;;;;;;;9.50;55.15;103163.19;5031289;28;20111;-71
2021/10/09 03:20:31;;;;;;;42.60;20.10;;;;;;;9.46;55.36;103166.69;5026105;28;20171;-70
2021/10/09 03:22:56;;;;;;;40.15;20.73;;;;;;;9.57;54.94;103171.03;5037044;28;20116;-71
2021/10/09 03:25:22;;;;;;;39.65;19.58;;;;;;;9.56;55.20;103168.41;5028857;28;20041;-69
2021/10/09 03:27:47;;;;;;;41.38;20.38;;;;;;;9.48;55.71;103164.94;5023773;28;20041;-71
2021/10/09 03:30:14;;;;;;;40.60;20.38;;;;;;;9.53;55.33;103168.41;5033100;28;20502;-71
2021/10/09 03:32:42;;;;;;;39.97;19.83;;;;;;;9.53;55.14;103171.03;5046554;28;20163;-70
2021/10/09 03:35:09;;;;;;;41.17;20.50;;;;;;;9.47;54.85;103171.00;5035169;28;20128;-72
2021/10/09 03:37:37;;;;;;;36.47;18.60;;;;;;;9.49;54.80;103170.16;5040480;28;20052;-70
2021/10/09 03:40:05;;;;;;;39.47;19.98;;;;;;;9.50;54.75;103176.22;5044801;28;20043;-71
2021/10/09 03:45:19;;;;;;;43.75;19.50;;;;;;;9.45;55.70;103164.91;5027708;28;20041;-71
2021/10/09 03:47:55;;;;;;;38.95;19.48;;;;;;;9.41;55.29;103169.28;5031432;28;20051;-71
2021/10/09 03:52:46;;;;;;;39.45;21.00;;;;;;;9.46;55.17;103177.13;5034084;28;20037;-72
2021/10/09 03:55:16;;;;;;;44.50;21.90;;;;;;;9.56;55.24;103163.19;5031061;28;20044;-71
2021/10/09 03:57:46;;;;;;;40.65;20.17;;;;;;;9.48;55.16;103164.94;5027117;28;20128;-68
2021/10/09 04:00:15;;;;;;;36.50;19.40;;;;;;;9.51;54.88;103165.78;5030577;28;20447;-69
2021/10/09 04:02:48;;;;;;;41.28;20.10;;;;;;;9.59;54.80;103179.75;5026982;28;20048;-69
2021/10/09 04:05:15;;;;;;;36.55;19.05;;;;;;;9.55;54.70;103178.00;5034051;28;20490;-68
2021/10/09 04:07:42;;;;;;;44.20;21.92;;;;;;;9.65;54.54;103175.38;5045242;28;20068;-68
2021/10/09 04:10:09;;;;;;;38.67;20.02;;;;;;;9.66;54.53;103175.41;5032746;28;20036;-68
2021/10/09 04:12:35;;;;;;;36.20;18.80;;;;;;;9.72;54.15;103170.19;5038229;28;20056;-69
2021/10/09 04:15:00;;;;;;;37.70;19.00;;;;;;;9.75;54.64;103175.38;5031567;28;20518;-69
2021/10/09 04:17:26;;;;;;;39.22;18.90;;;;;;;9.58;54.79;103171.91;5035067;28;20411;-67
2021/10/09 04:19:52;;;;;;;44.22;20.55;;;;;;;9.59;54.50;103168.44;5028802;28;20033;-70
2021/10/09 04:22:18;;;;;;;38.53;19.90;;;;;;;9.47;54.96;103168.41;5015925;28;20029;-69
2021/10/09 04:24:43;;;;;;;43.95;22.08;;;;;;;9.34;55.16;103168.41;5028473;28;20116;-69
2021/10/09 04:27:09;;;;;;;45.75;21.23;;;;;;;9.29;55.53;103164.03;5031552;28;20459;-71
2021/10/09 04:29:35;;;;;;;36.50;20.20;;;;;;;9.36;54.96;103171.84;5030841;28;20505;-70
2021/10/09 04:32:01;;;;;;;38.67;20.42;;;;;;;9.44;54.78;103173.63;5021247;28;20040;-68
2021/10/09 04:34:27;;;;;;;41.38;20.70;;;;;;;9.42;54.86;103170.16;5028234;28;20056;-72
2021/10/09 04:36:57;;;;;;;42.35;21.27;;;;;;;9.34;54.77;103168.41;5030293;28;20029;-71
2021/10/09 04:39:24;;;;;;;50.17;19.90;;;;;;;9.31;54.96;103176.22;5029530;28;20526;-73
2021/10/09 04:41:49;;;;;;;40.33;20.73;;;;;;;9.50;54.44;103168.41;5027690;28;20251;-68
2021/10/09 04:44:15;;;;;;;53.22;21.85;;;;;;;9.57;54.32;103170.16;5029749;28;20033;-68
2021/10/09 04:46:44;;;;;;;48.72;22.88;;;;;;;9.54;54.37;103172.75;5026964;28;20042;-70
2021/10/09 04:49:11;;;;;;;41.20;20.58;;;;;;;9.58;54.13;103177.13;5043406;28;20033;-69
2021/10/09 04:51:38;;;;;;;37.00;20.45;;;;;;;9.51;54.24;103178.00;5035308;28;20048;-68
2021/10/09 04:54:05;;;;;;;36.00;18.77;;;;;;;9.29;55.10;103180.53;5030577;28;20094;-71
2021/10/09 04:56:31;;;;;;;41.13;19.83;;;;;;;9.35;54.76;103179.72;5026534;28;20402;-71
2021/10/09 04:58:58;;;;;;;41.65;20.30;;;;;;;9.19;55.10;103178.81;5018884;28;20311;-69
2021/10/09 05:01:24;;;;;;;42.47;20.58;;;;;;;9.22;55.14;103177.94;5033099;28;20057;-68
2021/10/09 05:03:50;;;;;;;46.75;22.10;;;;;;;9.15;54.95;103177.06;5044387;28;20037;-69
2021/10/09 05:06:15;;;;;;;39.20;20.45;;;;;;;9.17;54.75;103180.53;5043126;28;20511;-70
2021/10/09 05:08:41;;;;;;;44.42;19.77;;;;;;;9.04;55.33;103179.63;5008776;28;20140;-69
2021/10/09 05:11:09;;;;;;;42.88;20.33;;;;;;;9.28;54.75;103177.97;5026705;28;20453;-70
2021/10/09 05:13:35;;;;;;;40.80;19.42;;;;;;;9.22;54.85;103189.22;5031613;28;20038;-69
2021/10/09 05:16:01;;;;;;;37.45;20.60;;;;;;;9.14;54.61;103180.50;5032184;28;20040;-70
2021/10/09 05:18:28;;;;;;;42.83;20.08;;;;;;;9.14;54.89;103180.50;5011774;28;20030;-69
2021/10/09 05:20:54;;;;;;;47.30;22.10;;;;;;;9.11;54.96;103183.97;5037345;28;20064;-71
2021/10/09 05:23:22;;;;;;;39.88;21.10;;;;;;;8.94;54.88;103188.25;5029626;28;20032;-70
2021/10/09 05:25:52;;;;;;;39.47;21.15;;;;;;;9.03;54.80;103180.50;5050397;28;20038;-69
2021/10/09 05:28:36;;;;;;;45.63;22.08;;;;;;;8.95;55.25;103192.63;5025655;28;20043;-70
2021/10/09 05:31:03;;;;;;;47.97;21.67;;;;;;;8.85;55.05;103189.13;5043944;28;20045;-71
2021/10/09 05:35:56;;;;;;;50.08;22.50;;;;;;;9.05;54.61;103196.13;5038733;28;20163;-71
2021/10/09 05:38:23;;;;;;;56.83;21.98;;;;;;;8.92;54.58;103193.50;5034820;28;20439;-69
2021/10/09 05:40:51;;;;;;;53.38;23.10;;;;;;;9.05;54.51;103197.00;5031316;28;20144;-70
2021/10/09 05:43:20;;;;;;;42.17;20.25;;;;;;;9.03;54.75;103190.94;5037002;28;20568;-70
2021/10/09 05:45:46;;;;;;;43.05;21.08;;;;;;;9.00;54.46;103193.50;5029173;28;20494;-68
2021/10/09 05:48:12;;;;;;;40.28;19.95;;;;;;;8.97;54.42;103198.72;5035043;28;20588;-71
2021/10/09 05:53:28;;;;;;;39.35;21.05;;;;;;;8.90;53.90;103200.44;5037896;28;20490;-68
2021/10/09 05:56:07;;;;;;;49.47;23.87;;;;;;;8.82;54.19;103196.06;5022360;28;20398;-69
2021/10/09 06:31:18;;;;;;;46.42;20.60;;;;;;;8.71;54.69;103201.22;5030775;28;20497;-70
2021/10/09 06:48:28;;;;;;;36.85;19.50;;;;;;;9.65;52.62;103218.03;5030349;28;20518;-70
2021/10/09 07:01:44;;;;;;;29.58;16.30;;;;;;;14.74;39.34;103223.88;5030830;28;20544;-69
2021/10/09 07:04:10;;;;;;;23.83;14.68;;;;;;;15.26;38.41;103224.56;5046011;28;20032;-69
2021/10/09 07:06:35;;;;;;;27.80;14.73;;;;;;;15.28;36.83;103228.03;5044904;28;20041;-68
2021/10/09 07:09:05;;;;;;;26.48;15.73;;;;;;;15.53;35.87;103231.84;5037338;28;20040;-68
2021/10/09 07:11:51;;;;;;;25.10;14.93;;;;;;;15.65;35.19;103222.75;5031764;28;20033;-67
2021/10/09 07:14:17;;;;;;;23.45;13.70;;;;;;;16.31;33.44;103223.75;5034939;28;20033;-69
2021/10/09 07:16:43;;;;;;;23.42;13.30;;;;;;;16.52;33.46;103226.69;5029141;28;21024;-69
2021/10/09 07:19:08;;;;;;;22.35;13.77;;;;;;;16.73;32.41;103227.84;5035993;28;20064;-68
2021/10/09 07:21:38;;;;;;;21.65;12.95;;;;;;;17.02;32.88;103227.91;5029040;28;20129;-68
2021/10/09 07:24:04;;;;;;;21.42;11.65;;;;;;;17.67;31.74;103227.66;5041851;28;20120;-68
2021/10/09 07:26:29;;;;;;;25.38;13.77;;;;;;;17.71;31.94;103229.28;5029885;28;20029;-68
2021/10/09 07:28:55;;;;;;;20.65;11.93;;;;;;;17.86;31.79;103234.06;5030699;28;20415;-68
2021/10/09 07:31:21;;;;;;;26.42;12.30;;;;;;;18.18;31.46;103240.03;5016226;28;20038;-68
2021/10/09 07:33:46;;;;;;;18.90;11.60;;;;;;;18.14;31.11;103235.75;5028058;28;20037;-68
2021/10/09 07:36:12;;;;;;;13.77;9.15;;;;;;;18.77;29.33;103237.03;5019929;28;20068;-68
2021/10/09 07:38:37;;;;;;;14.95;10.27;;;;;;;19.07;28.57;103232.34;5036608;28;20543;-68
2021/10/09 07:41:03;;;;;;;15.68;10.57;;;;;;;19.22;28.85;103236.19;5026585;28;20124;-68
2021/10/09 07:43:29;;;;;;;17.35;9.98;;;;;;;19.15;28.76;103237.38;5034776;28;20049;-68
2021/10/09 07:45:55;;;;;;;22.27;9.88;;;;;;;19.50;28.27;103230.66;5010527;28;20156;-68
2021/10/09 07:48:20;;;;;;;18.88;10.68;;;;;;;19.02;28.71;103236.97;5027259;28;20073;-68
2021/10/09 07:50:46;;;;;;;18.88;9.23;;;;;;;18.83;28.66;103234.16;5027878;28;20061;-68
2021/10/09 07:53:11;;;;;;;20.20;8.95;;;;;;;18.68;28.63;103234.72;5031358;28;20036;-68
2021/10/09 07:55:37;;;;;;;15.93;9.30;;;;;;;18.99;28.33;103239.75;5028020;28;20044;-68
2021/10/09 07:58:02;;;;;;;18.80;8.88;;;;;;;19.21;28.54;103237.13;5029128;28;20025;-68
2021/10/09 08:00:28;;;;;;;17.60;8.85;;;;;;;18.68;28.42;103235.59;5028818;28;20338;-68
2021/10/09 08:02:54;;;;;;;11.20;7.82;;;;;;;18.62;28.37;103240.25;5026128;28;20502;-68
2021/10/09 08:05:22;;;;;;;13.55;8.43;;;;;;;18.76;28.83;103240.59;5031054;28;20042;-70
2021/10/09 08:07:48;;;;;;;16.00;9.43;;;;;;;18.63;28.59;103244.59;5026541;28;20118;-68
2021/10/09 08:10:15;;;;;;;18.65;8.90;;;;;;;18.30;29.21;103239.63;5036609;28;20072;-69
2021/10/09 08:12:40;;;;;;;19.63;9.18;;;;;;;17.96;29.12;103237.25;5030876;28;20088;-69
2021/10/09 08:15:07;;;;;;;19.83;8.00;;;;;;;17.70;28.98;103239.00;5026255;28;20518;-68
2021/10/09 08:17:32;;;;;;;16.45;9.02;;;;;;;17.79;29.66;103238.69;5040704;28;20044;-69
2021/10/09 08:19:58;;;;;;;18.42;9.23;;;;;;;17.64;30.02;103234.75;5025429;28;20033;-69
2021/10/09 08:22:26;;;;;;;22.33;10.00;;;;;;;17.42;29.24;103239.00;5026340;28;20068;-69
2021/10/09 08:36:02;;;;;;;16.15;7.90;;;;;;;16.98;31.56;103238.59;5024858;28;20044;-69
2021/10/09 08:40:52;;;;;;;23.25;8.50;;;;;;;15.83;33.32;103245.16;5024666;28;20048;-69
2021/10/09 08:43:17;;;;;;;17.88;8.63;;;;;;;15.46;32.16;103242.53;5032676;28;20033;-69
2021/10/09 08:45:45;;;;;;;17.73;8.40;;;;;;;15.01;33.62;103250.53;5044206;28;20046;-69
2021/10/09 08:48:11;;;;;;;17.75;8.32;;;;;;;15.05;34.07;103247.81;5025049;28;20037;-68
2021/10/09 08:50:36;;;;;;;16.95;8.50;;;;;;;15.07;33.47;103247.78;5027855;28;20068;-68
2021/10/09 08:53:09;;;;;;;17.50;9.63;;;;;;;14.04;34.88;103253.22;5043657;28;20124;-69
2021/10/09 08:55:37;;;;;;;21.42;9.77;;;;;;;13.97;35.12;103250.72;5022848;28;20041;-68
2021/10/09 08:58:07;;;;;;;16.15;8.85;;;;;;;14.33;34.84;103244.81;5025801;28;20041;-68
2021/10/09 09:01:11;;;;;;;20.63;9.30;;;;;;;14.10;34.86;103247.00;5027440;28;20578;-69
2021/10/09 09:06:45;;;;;;;17.77;9.27;;;;;;;14.98;33.78;103243.56;5029157;28;20049;-68
2021/10/09 09:26:03;;;;;;;16.55;9.40;;;;;;;14.66;34.24;103231.09;5012631;28;20049;-69
2021/10/09 09:36:24;;;;;;;20.90;8.20;;;;;;;15.63;31.84;103221.94;5036119;28;20131;-69
2021/10/09 09:39:04;;;;;;;;;;;;;;;14.90;32.45;103224.44;5028049;28;20033;-70
2021/10/09 09:41:40;;;;;;;14.07;7.82;;;;;;;15.09;32.68;103225.78;5028785;28;20037;-70
2021/10/09 09:44:10;;;;;;;12.93;6.97;;;;;;;14.92;31.70;103223.50;5042956;28;20033;-70
2021/10/09 09:46:36;;;;;;;16.75;6.95;;;;;;;14.40;32.83;103213.13;5028263;28;20045;-68
2021/10/09 09:49:01;;;;;;;13.00;6.90;;;;;;;15.06;32.56;103204.78;5028986;28;20045;-68
2021/10/09 09:51:27;;;;;;;17.52;7.57;;;;;;;15.39;31.60;103207.56;5028716;28;20041;-69
2021/10/09 09:53:52;;;;;;;18.80;7.43;;;;;;;15.31;31.31;103212.16;5044235;28;20044;-68
2021/10/09 09:56:18;;;;;;;15.05;6.88;;;;;;;15.34;31.76;103204.19;5034051;28;20037;-69
2021/10/09 09:58:51;;;;;;;10.15;6.43;;;;;;;15.64;31.17;103199.94;5029797;28;20045;-69
2021/10/09 10:01:17;;;;;;;20.20;8.00;;;;;;;15.65;31.36;103204.31;5028326;28;20339;-68
2021/10/09 10:03:47;;;;;;;20.30;6.55;;;;;;;15.44;30.97;103197.81;5028912;28;20056;-68
2021/10/09 10:06:13;;;;;;;11.70;6.47;;;;;;;15.66;31.02;103194.63;5026457;28;20140;-70
2021/10/09 10:08:42;;;;;;;11.93;6.60;;;;;;;15.63;30.65;103202.63;5028784;28;20086;-70
2021/10/09 10:11:10;;;;;;;13.73;7.15;;;;;;;15.62;31.08;103198.22;5026169;28;20075;-70
2021/10/09 10:13:39;;;;;;;12.75;6.30;;;;;;;15.82;30.88;103190.72;5030433;28;20632;-68
2021/10/09 10:16:07;;;;;;;11.75;6.15;;;;;;;15.97;30.49;103186.78;5015185;28;20521;-68
2021/10/09 10:18:45;;;;;;;9.57;6.50;;;;;;;16.30;30.31;103178.91;5030953;28;20447;-68
2021/10/09 10:21:11;;;;;;;12.90;7.22;;;;;;;16.70;30.63;103177.78;5026091;28;20049;-69
2021/10/09 10:23:38;;;;;;;21.45;7.28;;;;;;;16.71;30.32;103175.09;5043206;28;20661;-68
2021/10/09 10:26:19;;;;;;;15.05;7.15;;;;;;;16.50;29.56;103173.94;5027151;28;20033;-68
2021/10/09 10:29:05;;;;;;;14.85;6.20;;;;;;;16.60;29.64;103170.13;5025873;28;20690;-69
2021/10/09 10:31:34;;;;;;;12.45;6.70;;;;;;;16.50;28.76;103167.78;5008016;28;20052;-69
2021/10/09 10:34:23;;;;;;;13.55;6.13;;;;;;;16.80;27.96;103161.66;5028811;28;20414;-69
2021/10/09 10:36:49;;;;;;;8.48;6.00;;;;;;;17.03;28.82;103162.72;5029774;28;20060;-69
2021/10/09 10:39:20;;;;;;;17.60;6.63;;;;;;;16.76;27.88;103164.44;5025623;28;20470;-69
2021/10/09 10:42:01;;;;;;;20.70;7.50;;;;;;;16.50;28.50;103162.50;5027245;28;20728;-69
2021/10/09 10:51:03;;;;;;;10.75;6.13;;;;;;;16.61;27.14;103155.16;5027708;28;20127;-68
2021/10/09 10:53:50;;;;;;;8.48;5.70;;;;;;;16.13;27.56;103147.72;5035941;28;20094;-68
2021/10/09 10:56:16;;;;;;;20.08;7.15;;;;;;;16.33;28.30;103149.78;5025451;28;20671;-68
2021/10/09 10:58:42;;;;;;;17.33;6.50;;;;;;;15.80;27.86;103156.47;5028186;28;20039;-70
2021/10/09 11:01:14;;;;;;;11.05;6.28;;;;;;;16.14;28.11;103158.22;5027314;28;20417;-70
2021/10/09 11:03:52;;;;;;;16.08;6.55;;;;;;;16.03;28.28;103151.53;5027765;28;20048;-70
2021/10/09 11:06:20;;;;;;;17.52;5.63;;;;;;;16.51;27.81;103151.03;5031438;28;20038;-69
2021/10/09 11:08:47;;;;;;;12.60;6.32;;;;;;;16.77;27.30;103143.22;5029829;28;20033;-69
2021/10/09 11:11:13;;;;;;;10.73;6.03;;;;;;;16.28;27.06;103146.44;5027791;28;20043;-69
2021/10/09 11:13:40;;;;;;;13.63;6.00;;;;;;;16.35;27.43;103159.41;5028407;28;20332;-69
2021/10/09 11:16:06;;;;;;;18.95;7.35;;;;;;;16.68;27.74;103145.25;5025083;28;20033;-69
2021/10/09 11:18:52;;;;;;;13.63;6.47;;;;;;;16.29;28.08;103149.03;5040112;28;20034;-69
2021/10/09 11:21:18;;;;;;;14.95;6.63;;;;;;;17.01;27.64;103143.41;5028454;28;20045;-69
2021/10/09 11:23:55;;;;;;;18.40;6.55;;;;;;;16.76;27.63;103149.44;5030771;28;20075;-69
2021/10/09 11:26:23;;;;;;;20.35;6.68;;;;;;;16.60;28.04;103148.16;5026370;28;20131;-69
2021/10/09 11:29:00;;;;;;;11.25;6.18;;;;;;;16.57;28.08;103140.28;5043928;28;20048;-70
2021/10/09 11:31:26;;;;;;;11.10;7.40;;;;;;;16.28;27.91;103142.00;5026939;28;20045;-68
2021/10/09 11:33:58;;;;;;;14.45;7.07;;;;;;;16.22;29.09;103142.19;5023876;28;20508;-69
2021/10/09 11:36:24;;;;;;;13.02;7.40;;;;;;;16.26;28.78;103138.53;5026912;28;20249;-69
2021/10/09 11:39:02;;;;;;;14.60;6.53;;;;;;;17.03;28.68;103133.66;5029983;28;20098;-69
2021/10/09 11:41:28;;;;;;;11.23;7.18;;;;;;;17.01;27.48;103127.53;5034410;28;20671;-69
2021/10/09 11:56:58;;;;;;;13.90;7.15;;;;;;;16.38;29.36;103127.66;5027101;28;20033;-69
2021/10/09 11:59:38;;;;;;;10.32;7.60;;;;;;;16.25;29.40;103128.91;5025870;28;20103;-69
2021/10/09 12:02:04;;;;;;;15.32;6.93;;;;;;;16.92;28.94;103130.47;5024655;28;20037;-69
2021/10/09 12:04:29;;;;;;;12.27;6.70;;;;;;;16.88;28.25;103126.19;5025178;28;20028;-69
2021/10/09 12:09:36;;;;;;;13.88;6.88;;;;;;;17.20;28.27;103123.41;5030669;28;20098;-72
2021/10/09 12:12:16;;;;;;;41.88;8.07;;;;;;;16.87;28.88;103124.47;5029229;28;20030;-69
2021/10/09 12:14:41;;;;;;;11.43;6.50;;;;;;;16.52;28.14;103118.47;5027177;28;20100;-70
2021/10/09 12:17:07;;;;;;;13.02;6.57;;;;;;;17.11;27.93;103118.41;5027406;28;20623;-68
2021/10/09 12:19:33;;;;;;;13.07;6.82;;;;;;;17.35;27.25;103111.44;5035491;28;20044;-70
2021/10/09 12:22:00;;;;;;;73.32;11.65;;;;;;;16.91;28.82;103120.81;5028005;28;20509;-70
2021/10/09 12:24:29;;;;;;;11.25;6.50;;;;;;;16.89;27.77;103106.78;5027354;28;20033;-69
2021/10/09 12:27:04;;;;;;;13.65;6.63;;;;;;;16.87;27.99;103119.19;5029206;28;20076;-69
2021/10/09 12:29:31;;;;;;;18.65;7.63;;;;;;;17.01;28.50;103114.34;5028904;28;20041;-68
2021/10/09 12:32:13;;;;;;;16.50;7.43;;;;;;;16.92;28.24;103112.84;5027931;28;20037;-68
2021/10/09 12:34:39;;;;;;;12.65;6.45;;;;;;;16.88;28.29;103108.56;5026529;28;20045;-70
2021/10/09 12:37:12;;;;;;;11.93;6.60;;;;;;;16.52;28.88;103108.75;5029030;28;20041;-69
2021/10/09 12:39:37;;;;;;;18.33;7.32;;;;;;;16.69;28.80;103095.06;5027736;28;20103;-69
2021/10/09 12:42:03;;;;;;;13.85;7.88;;;;;;;16.98;29.27;103095.97;5026048;28;20037;-69
2021/10/09 12:44:29;;;;;;;17.35;8.32;;;;;;;16.79;28.85;103101.78;5027289;28;20227;-70
2021/10/09 12:46:54;;;;;;;17.98;7.25;;;;;;;16.86;29.13;103101.63;5035126;28;20477;-69
2021/10/09 12:49:20;;;;;;;15.98;7.93;;;;;;;16.87;28.80;103098.03;5030108;28;20033;-69
2021/10/09 12:51:48;;;;;;;13.95;6.25;;;;;;;17.30;29.34;103099.31;5032963;28;20045;-69
2021/10/09 12:54:17;;;;;;;19.23;8.88;;;;;;;17.10;28.61;103092.03;5032340;28;20051;-70
2021/10/09 12:56:43;;;;;;;15.98;7.15;;;;;;;17.73;28.20;103089.94;5028140;28;20345;-69
2021/10/09 12:59:09;;;;;;;17.63;7.28;;;;;;;16.83;29.03;103090.22;5031859;28;20587;-70
2021/10/09 13:01:34;;;;;;;16.20;7.80;;;;;;;16.81;29.26;103092.06;5038148;28;20077;-69
2021/10/09 13:04:00;;;;;;;13.75;7.18;;;;;;;17.05;29.11;103092.19;5028907;28;20476;-70
2021/10/09 13:06:25;;;;;;;14.35;7.05;;;;;;;17.94;28.28;103081.22;5037099;28;20041;-69
2021/10/09 13:08:50;;;;;;;13.80;8.32;;;;;;;17.77;28.10;103086.25;5031125;28;20060;-70
2021/10/09 13:11:22;;;;;;;16.05;7.57;;;;;;;17.33;28.64;103080.69;5030874;28;20230;-68
2021/10/09 13:13:47;;;;;;;16.77;8.60;;;;;;;17.68;29.02;103082.16;5030876;28;20060;-71
2021/10/09 13:16:13;;;;;;;15.85;7.78;;;;;;;17.99;28.08;103073.97;5023906;28;20146;-69
2021/10/09 13:18:39;;;;;;;19.08;9.05;;;;;;;18.25;27.92;103078.34;5026938;28;20037;-69
2021/10/09 13:21:04;;;;;;;22.25;8.05;;;;;;;18.18;27.55;103071.50;5036346;28;20040;-68
2021/10/09 13:23:32;;;;;;;13.88;7.40;;;;;;;18.36;27.55;103075.25;5031175;28;20116;-70
2021/10/09 13:25:58;;;;;;;18.17;8.68;;;;;;;18.13;28.73;103068.16;5030350;28;20048;-69
2021/10/09 13:28:24;;;;;;;15.63;8.85;;;;;;;18.22;27.77;103072.28;5038813;28;20160;-69
2021/10/09 13:30:51;;;;;;;12.55;6.95;;;;;;;18.08;28.22;103064.84;5028139;28;20512;-70
2021/10/09 13:33:17;;;;;;;13.20;7.28;;;;;;;18.51;27.48;103072.97;5035085;28;20502;-70
2021/10/09 13:35:42;;;;;;;12.13;7.28;;;;;;;18.62;27.10;103068.94;5028672;28;20060;-70
2021/10/09 13:38:09;;;;;;;14.50;8.32;;;;;;;18.25;27.51;103062.47;5027205;28;20085;-70
2021/10/09 13:40:35;;;;;;;14.25;7.82;;;;;;;18.34;27.61;103077.13;5031939;28;20041;-69
2021/10/09 13:43:00;;;;;;;16.50;7.75;;;;;;;18.71;26.33;103066.88;5029498;28;20788;-70